sensor_id;sensor_type;location;lat;lon;timestamp;pressure;altitude;pressure_sealevel;temperature;humidity
50550;BME280;36505;52.512;13.460;2023-02-12T00:01:43;102808.78;;;6.97;94.01
50550;BME280;36505;52.512;13.460;2023-02-12T00:04:08;102809.63;;;6.97;94.05
50550;BME280;36505;52.512;13.460;2023-02-12T00:06:34;102815.94;;;6.98;93.82
50550;BME280;36505;52.512;13.460;2023-02-12T00:08:59;102820.38;;;6.99;93.91
50550;BME280;36505;52.512;13.460;2023-02-12T00:11:28;102820.38;;;6.99;93.67
50550;BME280;36505;52.512;13.460;2023-02-12T00:13:55;102824.63;;;6.93;93.81
50550;BME280;36505;52.512;13.460;2023-02-12T00:16:25;102830.41;;;6.90;93.80
50550;BME280;36505;52.512;13.460;2023-02-12T00:18:53;102840.81;;;6.95;93.67
50550;BME280;36505;52.512;13.460;2023-02-12T00:21:20;102832.97;;;6.92;93.71
50550;BME280;36505;52.512;13.460;2023-02-12T00:23:46;102838.56;;;6.90;93.54
50550;BME280;36505;52.512;13.460;2023-02-12T00:26:14;102842.16;;;6.91;93.93
50550;BME280;36505;52.512;13.460;2023-02-12T00:28:39;102835.00;;;6.90;93.76
50550;BME280;36505;52.512;13.460;2023-02-12T00:31:07;102840.63;;;6.88;93.65
50550;BME280;36505;52.512;13.460;2023-02-12T00:33:33;102842.50;;;6.88;93.52
50550;BME280;36505;52.512;13.460;2023-02-12T00:35:58;102844.53;;;6.86;93.61
50550;BME280;36505;52.512;13.460;2023-02-12T00:38:24;102849.81;;;6.87;93.50
50550;BME280;36505;52.512;13.460;2023-02-12T00:40:50;102843.50;;;6.87;93.42
50550;BME280;36505;52.512;13.460;2023-02-12T00:43:15;102839.78;;;6.88;93.29
50550;BME280;36505;52.512;13.460;2023-02-12T00:45:40;102837.06;;;6.88;93.38
50550;BME280;36505;52.512;13.460;2023-02-12T00:48:06;102846.25;;;6.87;93.25
50550;BME280;36505;52.512;13.460;2023-02-12T00:50:31;102846.25;;;6.87;93.21
50550;BME280;36505;52.512;13.460;2023-02-12T00:52:57;102855.41;;;6.86;92.97
50550;BME280;36505;52.512;13.460;2023-02-12T00:55:22;102856.28;;;6.86;93.04
50550;BME280;36505;52.512;13.460;2023-02-12T00:57:47;102862.03;;;6.83;92.99
50550;BME280;36505;52.512;13.460;2023-02-12T01:00:13;102859.53;;;6.82;93.00
50550;BME280;36505;52.512;13.460;2023-02-12T01:02:39;102868.69;;;6.81;93.02
50550;BME280;36505;52.512;13.460;2023-02-12T01:05:05;102867.00;;;6.80;93.33
50550;BME280;36505;52.512;13.460;2023-02-12T01:07:30;102873.13;;;6.82;92.94
50550;BME280;36505;52.512;13.460;2023-02-12T01:09:55;102870.56;;;6.80;92.89
50550;BME280;36505;52.512;13.460;2023-02-12T01:12:21;102871.44;;;6.81;92.86
50550;BME280;36505;52.512;13.460;2023-02-12T01:14:46;102880.59;;;6.80;92.91
50550;BME280;36505;52.512;13.460;2023-02-12T01:17:12;102871.25;;;6.82;92.71
50550;BME280;36505;52.512;13.460;2023-02-12T01:19:37;102876.88;;;6.81;92.95
50550;BME280;36505;52.512;13.460;2023-02-12T01:22:02;102872.28;;;6.81;92.57
50550;BME280;36505;52.512;13.460;2023-02-12T01:24:28;102885.69;;;6.83;92.51
50550;BME280;36505;52.512;13.460;2023-02-12T01:26:53;102879.44;;;6.82;92.55
50550;BME280;36505;52.512;13.460;2023-02-12T01:29:19;102887.75;;;6.81;92.40
50550;BME280;36505;52.512;13.460;2023-02-12T01:31:44;102885.03;;;6.81;92.57
50550;BME280;36505;52.512;13.460;2023-02-12T01:34:10;102886.91;;;6.80;92.47
50550;BME280;36505;52.512;13.460;2023-02-12T01:36:36;102890.66;;;6.79;92.55
50550;BME280;36505;52.512;13.460;2023-02-12T01:39:03;102890.13;;;6.75;92.23
50550;BME280;36505;52.512;13.460;2023-02-12T01:41:32;102891.31;;;6.73;92.49
50550;BME280;36505;52.512;13.460;2023-02-12T01:44:27;102897.78;;;6.72;92.56
50550;BME280;36505;52.512;13.460;2023-02-12T01:46:59;102901.66;;;6.69;92.53
50550;BME280;36505;52.512;13.460;2023-02-12T01:49:45;102900.66;;;6.70;92.53
50550;BME280;36505;52.512;13.460;2023-02-12T01:52:17;102902.38;;;6.71;92.39
50550;BME280;36505;52.512;13.460;2023-02-12T01:54:45;102896.41;;;6.68;92.32
50550;BME280;36505;52.512;13.460;2023-02-12T01:57:11;102897.75;;;6.64;92.39
50550;BME280;36505;52.512;13.460;2023-02-12T01:59:39;102901.00;;;6.67;92.44
50550;BME280;36505;52.512;13.460;2023-02-12T02:02:06;102908.16;;;6.68;92.22
50550;BME280;36505;52.512;13.460;2023-02-12T02:04:37;102900.63;;;6.62;92.28
50550;BME280;36505;52.512;13.460;2023-02-12T02:07:06;102915.28;;;6.69;92.23
50550;BME280;36505;52.512;13.460;2023-02-12T02:09:34;102905.75;;;6.65;92.36
50550;BME280;36505;52.512;13.460;2023-02-12T02:12:00;102920.56;;;6.71;92.35
50550;BME280;36505;52.512;13.460;2023-02-12T02:14:46;102921.78;;;6.68;92.28
50550;BME280;36505;52.512;13.460;2023-02-12T02:31:11;102919.38;;;6.65;92.48
50550;BME280;36505;52.512;13.460;2023-02-12T02:36:45;102917.50;;;6.66;92.29
50550;BME280;36505;52.512;13.460;2023-02-12T02:39:38;102925.84;;;6.64;92.02
50550;BME280;36505;52.512;13.460;2023-02-12T02:42:17;102918.53;;;6.65;92.16
50550;BME280;36505;52.512;13.460;2023-02-12T02:44:54;102918.69;;;6.63;92.06
50550;BME280;36505;52.512;13.460;2023-02-12T02:47:24;102918.00;;;6.61;92.22
50550;BME280;36505;52.512;13.460;2023-02-12T02:50:02;102915.28;;;6.61;92.12
50550;BME280;36505;52.512;13.460;2023-02-12T02:52:36;102922.75;;;6.59;91.87
50550;BME280;36505;52.512;13.460;2023-02-12T02:55:06;102925.47;;;6.59;92.29
50550;BME280;36505;52.512;13.460;2023-02-12T02:57:50;102923.06;;;6.56;91.88
50550;BME280;36505;52.512;13.460;2023-02-12T03:00:34;102930.38;;;6.56;91.95
50550;BME280;36505;52.512;13.460;2023-02-12T03:03:07;102938.75;;;6.54;92.25
50550;BME280;36505;52.512;13.460;2023-02-12T03:05:36;102934.31;;;6.53;91.95
50550;BME280;36505;52.512;13.460;2023-02-12T03:08:07;102941.63;;;6.53;92.07
50550;BME280;36505;52.512;13.460;2023-02-12T03:10:35;102946.72;;;6.56;91.93
50550;BME280;36505;52.512;13.460;2023-02-12T03:13:36;102945.88;;;6.55;91.78
50550;BME280;36505;52.512;13.460;2023-02-12T03:16:30;102946.91;;;6.54;91.79
50550;BME280;36505;52.512;13.460;2023-02-12T03:19:16;102949.78;;;6.53;91.89
50550;BME280;36505;52.512;13.460;2023-02-12T03:21:49;102956.94;;;6.54;92.20
50550;BME280;36505;52.512;13.460;2023-02-12T03:24:22;102958.47;;;6.56;92.09
50550;BME280;36505;52.512;13.460;2023-02-12T03:26:53;102956.59;;;6.57;91.86
50550;BME280;36505;52.512;13.460;2023-02-12T03:29:20;102962.75;;;6.59;91.71
50550;BME280;36505;52.512;13.460;2023-02-12T03:38:03;102963.91;;;6.56;91.98
50550;BME280;36505;52.512;13.460;2023-02-12T03:40:35;102963.56;;;6.51;91.96
50550;BME280;36505;52.512;13.460;2023-02-12T03:51:36;102966.63;;;6.56;91.71
50550;BME280;36505;52.512;13.460;2023-02-12T03:54:03;102963.25;;;6.54;91.68
50550;BME280;36505;52.512;13.460;2023-02-12T03:56:59;102972.41;;;6.53;91.48
50550;BME280;36505;52.512;13.460;2023-02-12T03:59:23;102972.41;;;6.53;91.20
50550;BME280;36505;52.512;13.460;2023-02-12T04:01:51;102974.59;;;6.50;91.41
50550;BME280;36505;52.512;13.460;2023-02-12T04:04:17;102985.69;;;6.48;91.41
50550;BME280;36505;52.512;13.460;2023-02-12T04:06:45;102976.81;;;6.46;91.34
50550;BME280;36505;52.512;13.460;2023-02-12T04:09:12;102984.13;;;6.46;91.34
50550;BME280;36505;52.512;13.460;2023-02-12T04:11:53;102990.41;;;6.46;91.28
50550;BME280;36505;52.512;13.460;2023-02-12T04:14:30;102982.56;;;6.43;91.01
50550;BME280;36505;52.512;13.460;2023-02-12T04:17:04;102980.66;;;6.35;91.35
50550;BME280;36505;52.512;13.460;2023-02-12T04:23:38;102985.25;;;6.35;91.27
50550;BME280;36505;52.512;13.460;2023-02-12T04:25:45;102992.34;;;6.28;91.34
50550;BME280;36505;52.512;13.460;2023-02-12T04:31:17;102991.31;;;6.21;91.21
50550;BME280;36505;52.512;13.460;2023-02-12T04:36:28;102990.06;;;6.15;91.27
50550;BME280;36505;52.512;13.460;2023-02-12T04:38:59;102997.00;;;6.10;91.43
50550;BME280;36505;52.512;13.460;2023-02-12T04:41:26;102992.06;;;6.05;91.50
50550;BME280;36505;52.512;13.460;2023-02-12T04:43:52;102999.00;;;6.00;91.86
50550;BME280;36505;52.512;13.460;2023-02-12T04:46:18;102993.00;;;5.96;91.74
50550;BME280;36505;52.512;13.460;2023-02-12T04:48:52;102989.22;;;5.89;92.05
50550;BME280;36505;52.512;13.460;2023-02-12T04:51:18;102996.63;;;5.87;91.95
50550;BME280;36505;52.512;13.460;2023-02-12T04:53:44;102991.84;;;5.81;92.60
50550;BME280;36505;52.512;13.460;2023-02-12T04:56:11;102995.03;;;5.76;92.86
50550;BME280;36505;52.512;13.460;2023-02-12T04:58:38;102989.22;;;5.71;93.14
50550;BME280;36505;52.512;13.460;2023-02-12T05:01:03;102997.69;;;5.68;93.16
50550;BME280;36505;52.512;13.460;2023-02-12T05:03:29;102988.84;;;5.66;93.48
50550;BME280;36505;52.512;13.460;2023-02-12T05:05:54;102998.03;;;5.65;93.58
50550;BME280;36505;52.512;13.460;2023-02-12T05:08:19;102999.72;;;5.66;93.67
50550;BME280;36505;52.512;13.460;2023-02-12T05:10:45;102999.41;;;5.69;94.12
50550;BME280;36505;52.512;13.460;2023-02-12T05:13:10;102986.44;;;5.63;94.12
50550;BME280;36505;52.512;13.460;2023-02-12T05:15:38;102996.03;;;5.75;94.20
50550;BME280;36505;52.512;13.460;2023-02-12T05:18:03;103005.91;;;5.76;94.26
50550;BME280;36505;52.512;13.460;2023-02-12T05:20:29;102992.31;;;5.76;94.38
50550;BME280;36505;52.512;13.460;2023-02-12T05:22:54;103001.41;;;5.85;94.23
50550;BME280;36505;52.512;13.460;2023-02-12T05:25:20;103004.53;;;5.90;94.14
50550;BME280;36505;52.512;13.460;2023-02-12T05:27:45;103005.75;;;5.95;94.23
50550;BME280;36505;52.512;13.460;2023-02-12T05:30:11;103009.03;;;5.99;93.78
50550;BME280;36505;52.512;13.460;2023-02-12T05:32:36;103014.28;;;6.01;93.70
50550;BME280;36505;52.512;13.460;2023-02-12T05:35:02;103011.25;;;6.04;93.63
50550;BME280;36505;52.512;13.460;2023-02-12T05:37:27;103018.25;;;6.06;93.30
50550;BME280;36505;52.512;13.460;2023-02-12T05:39:52;103021.50;;;6.10;93.18
50550;BME280;36505;52.512;13.460;2023-02-12T05:42:18;103027.47;;;6.13;92.97
50550;BME280;36505;52.512;13.460;2023-02-12T05:44:43;103024.56;;;6.15;92.84
50550;BME280;36505;52.512;13.460;2023-02-12T05:47:09;103026.97;;;6.18;92.61
50550;BME280;36505;52.512;13.460;2023-02-12T05:49:34;103003.63;;;6.07;92.61
50550;BME280;36505;52.512;13.460;2023-02-12T05:52:00;103023.97;;;6.21;92.72
50550;BME280;36505;52.512;13.460;2023-02-12T05:54:25;103023.78;;;6.22;92.34
50550;BME280;36505;52.512;13.460;2023-02-12T05:56:50;103019.34;;;6.21;92.42
50550;BME280;36505;52.512;13.460;2023-02-12T05:59:19;103026.50;;;6.22;92.38
50550;BME280;36505;52.512;13.460;2023-02-12T06:01:46;103027.34;;;6.23;92.43
50550;BME280;36505;52.512;13.460;2023-02-12T06:04:15;103028.75;;;6.27;92.28
50550;BME280;36505;52.512;13.460;2023-02-12T06:06:40;103027.72;;;6.28;92.30
50550;BME280;36505;52.512;13.460;2023-02-12T06:09:07;103022.97;;;6.30;92.09
50550;BME280;36505;52.512;13.460;2023-02-12T06:11:33;103023.81;;;6.30;92.02
50550;BME280;36505;52.512;13.460;2023-02-12T06:14:11;103029.75;;;6.26;92.14
50550;BME280;36505;52.512;13.460;2023-02-12T06:16:37;103039.44;;;6.28;91.97
50550;BME280;36505;52.512;13.460;2023-02-12T06:19:04;103043.03;;;6.29;92.31
50550;BME280;36505;52.512;13.460;2023-02-12T06:21:31;103051.03;;;6.30;91.91
50550;BME280;36505;52.512;13.460;2023-02-12T06:23:56;103051.19;;;6.29;92.14
50550;BME280;36505;52.512;13.460;2023-02-12T06:26:22;103049.47;;;6.28;92.05
50550;BME280;36505;52.512;13.460;2023-02-12T06:28:48;103061.06;;;6.30;92.05
50550;BME280;36505;52.512;13.460;2023-02-12T06:31:26;103062.78;;;6.31;91.89
50550;BME280;36505;52.512;13.460;2023-02-12T06:33:53;103070.94;;;6.31;91.94
50550;BME280;36505;52.512;13.460;2023-02-12T06:36:19;103073.50;;;6.32;91.86
50550;BME280;36505;52.512;13.460;2023-02-12T06:38:45;103078.81;;;6.34;91.71
50550;BME280;36505;52.512;13.460;2023-02-12T06:41:11;103080.47;;;6.35;91.77
50550;BME280;36505;52.512;13.460;2023-02-12T06:43:37;103077.75;;;6.35;91.61
50550;BME280;36505;52.512;13.460;2023-02-12T06:46:03;103095.81;;;6.36;92.04
50550;BME280;36505;52.512;13.460;2023-02-12T06:48:29;103088.34;;;6.38;91.73
50550;BME280;36505;52.512;13.460;2023-02-12T06:50:55;103088.50;;;6.37;91.93
50550;BME280;36505;52.512;13.460;2023-02-12T06:53:21;103090.91;;;6.40;91.57
50550;BME280;36505;52.512;13.460;2023-02-12T06:55:46;103095.16;;;6.42;91.61
50550;BME280;36505;52.512;13.460;2023-02-12T06:58:12;103067.53;;;6.29;91.62
50550;BME280;36505;52.512;13.460;2023-02-12T07:00:37;103087.31;;;6.39;91.70
50550;BME280;36505;52.512;13.460;2023-02-12T07:03:03;103100.44;;;6.44;91.70
50550;BME280;36505;52.512;13.460;2023-02-12T07:05:28;103106.03;;;6.42;91.86
50550;BME280;36505;52.512;13.460;2023-02-12T07:07:53;103106.75;;;6.44;91.61
50550;BME280;36505;52.512;13.460;2023-02-12T07:10:19;103112.19;;;6.44;91.49
50550;BME280;36505;52.512;13.460;2023-02-12T07:12:45;103116.13;;;6.50;91.46
50550;BME280;36505;52.512;13.460;2023-02-12T07:15:10;103110.53;;;6.51;91.28
50550;BME280;36505;52.512;13.460;2023-02-12T07:17:36;103105.25;;;6.50;91.12
50550;BME280;36505;52.512;13.460;2023-02-12T07:20:02;103115.69;;;6.54;90.84
50550;BME280;36505;52.512;13.460;2023-02-12T07:22:28;103100.66;;;6.50;89.92
50550;BME280;36505;52.512;13.460;2023-02-12T07:24:53;103114.19;;;6.60;89.71
50550;BME280;36505;52.512;13.460;2023-02-12T07:27:18;103121.00;;;6.64;89.11
50550;BME280;36505;52.512;13.460;2023-02-12T07:29:44;103125.56;;;6.63;88.90
50550;BME280;36505;52.512;13.460;2023-02-12T07:32:09;103128.00;;;6.66;88.41
50550;BME280;36505;52.512;13.460;2023-02-12T07:34:34;103130.38;;;6.69;88.33
50550;BME280;36505;52.512;13.460;2023-02-12T07:37:00;103128.69;;;6.68;88.81
50550;BME280;36505;52.512;13.460;2023-02-12T07:39:25;103127.84;;;6.68;88.16
50550;BME280;36505;52.512;13.460;2023-02-12T07:41:50;103130.22;;;6.71;88.30
50550;BME280;36505;52.512;13.460;2023-02-12T07:44:16;103124.78;;;6.71;88.19
50550;BME280;36505;52.512;13.460;2023-02-12T07:46:47;103126.34;;;6.73;88.00
50550;BME280;36505;52.512;13.460;2023-02-12T07:49:15;103126.84;;;6.77;87.89
50550;BME280;36505;52.512;13.460;2023-02-12T07:51:41;103128.25;;;6.81;87.87
50550;BME280;36505;52.512;13.460;2023-02-12T07:54:07;103136.09;;;6.84;87.81
50550;BME280;36505;52.512;13.460;2023-02-12T07:56:34;103133.50;;;6.83;87.70
50550;BME280;36505;52.512;13.460;2023-02-12T07:59:04;103136.78;;;6.86;87.85
50550;BME280;36505;52.512;13.460;2023-02-12T08:01:35;103125.47;;;6.73;87.56
50550;BME280;36505;52.512;13.460;2023-02-12T08:04:06;103139.50;;;6.86;87.53
50550;BME280;36505;52.512;13.460;2023-02-12T08:06:37;103142.75;;;6.90;87.54
50550;BME280;36505;52.512;13.460;2023-02-12T08:09:05;103145.88;;;6.95;87.07
50550;BME280;36505;52.512;13.460;2023-02-12T08:11:32;103157.44;;;6.97;86.82
50550;BME280;36505;52.512;13.460;2023-02-12T08:13:58;103144.31;;;6.92;86.80
50550;BME280;36505;52.512;13.460;2023-02-12T08:16:25;103154.69;;;6.97;86.50
50550;BME280;36505;52.512;13.460;2023-02-12T08:18:52;103159.50;;;7.03;86.29
50550;BME280;36505;52.512;13.460;2023-02-12T08:21:22;103161.22;;;7.04;86.28
50550;BME280;36505;52.512;13.460;2023-02-12T08:23:48;103160.91;;;7.07;85.81
50550;BME280;36505;52.512;13.460;2023-02-12T08:28:49;103158.53;;;7.12;85.47
50550;BME280;36505;52.512;13.460;2023-02-12T08:31:18;103165.69;;;7.13;85.24
50550;BME280;36505;52.512;13.460;2023-02-12T08:33:45;103173.38;;;7.18;85.23
50550;BME280;36505;52.512;13.460;2023-02-12T08:36:14;103171.66;;;7.17;85.17
50550;BME280;36505;52.512;13.460;2023-02-12T08:38:41;103187.00;;;7.18;85.18
50550;BME280;36505;52.512;13.460;2023-02-12T08:41:27;103181.94;;;7.23;85.06
50550;BME280;36505;52.512;13.460;2023-02-12T08:43:54;103175.28;;;7.25;84.89
50550;BME280;36505;52.512;13.460;2023-02-12T08:46:22;103188.44;;;7.30;84.41
50550;BME280;36505;52.512;13.460;2023-02-12T08:48:52;103190.97;;;7.31;84.47
50550;BME280;36505;52.512;13.460;2023-02-12T08:51:20;103196.28;;;7.33;84.22
50550;BME280;36505;52.512;13.460;2023-02-12T08:53:47;103198.84;;;7.34;83.87
50550;BME280;36505;52.512;13.460;2023-02-12T08:56:15;103197.81;;;7.35;84.09
50550;BME280;36505;52.512;13.460;2023-02-12T08:58:41;103198.69;;;7.36;84.06
50550;BME280;36505;52.512;13.460;2023-02-12T09:01:12;103200.06;;;7.40;83.66
50550;BME280;36505;52.512;13.460;2023-02-12T09:03:38;103202.47;;;7.43;83.59
50550;BME280;36505;52.512;13.460;2023-02-12T09:06:05;103203.66;;;7.48;83.56
50550;BME280;36505;52.512;13.460;2023-02-12T09:08:31;103207.91;;;7.51;83.58
50550;BME280;36505;52.512;13.460;2023-02-12T09:10:57;103209.31;;;7.55;83.46
50550;BME280;36505;52.512;13.460;2023-02-12T09:13:23;103212.56;;;7.59;83.24
50550;BME280;36505;52.512;13.460;2023-02-12T09:15:49;103216.69;;;7.63;83.02
50550;BME280;36505;52.512;13.460;2023-02-12T09:18:14;103217.53;;;7.63;83.08
50550;BME280;36505;52.512;13.460;2023-02-12T09:20:42;103219.06;;;7.66;82.89
50550;BME280;36505;52.512;13.460;2023-02-12T09:23:10;103218.75;;;7.69;82.71
50550;BME280;36505;52.512;13.460;2023-02-12T09:25:44;103223.19;;;7.70;82.68
50550;BME280;36505;52.512;13.460;2023-02-12T09:28:12;103231.69;;;7.67;82.76
50550;BME280;36505;52.512;13.460;2023-02-12T09:30:38;103232.72;;;7.74;82.70
50550;BME280;36505;52.512;13.460;2023-02-12T09:33:05;103230.03;;;7.82;82.56
50550;BME280;36505;52.512;13.460;2023-02-12T09:35:33;103235.53;;;7.90;82.65
50550;BME280;36505;52.512;13.460;2023-02-12T09:37:59;103244.06;;;7.95;82.88
50550;BME280;36505;52.512;13.460;2023-02-12T09:45:37;103240.13;;;8.06;83.09
50550;BME280;36505;52.512;13.460;2023-02-12T09:50:58;103231.97;;;8.14;82.60
50550;BME280;36505;52.512;13.460;2023-02-12T09:53:28;103240.34;;;8.20;82.60
50550;BME280;36505;52.512;13.460;2023-02-12T09:55:54;103238.16;;;8.24;82.57
50550;BME280;36505;52.512;13.460;2023-02-12T09:58:31;103233.72;;;8.23;82.64
50550;BME280;36505;52.512;13.460;2023-02-12T10:00:57;103241.75;;;8.32;82.23
50550;BME280;36505;52.512;13.460;2023-02-12T10:03:23;103237.84;;;8.35;82.03
50550;BME280;36505;52.512;13.460;2023-02-12T10:05:55;103245.19;;;8.43;81.88
50550;BME280;36505;52.512;13.460;2023-02-12T10:14:03;103245.19;;;8.43;81.98
50550;BME280;36505;52.512;13.460;2023-02-12T10:16:39;103237.84;;;8.43;82.05
50550;BME280;36505;52.512;13.460;2023-02-12T10:24:55;103253.22;;;8.52;82.56
50550;BME280;36505;52.512;13.460;2023-02-12T10:27:53;103243.16;;;8.53;82.48
50550;BME280;36505;52.512;13.460;2023-02-12T10:31:05;103232.72;;;8.56;82.58
50550;BME280;36505;52.512;13.460;2023-02-12T10:33:16;103233.91;;;8.62;82.53
50550;BME280;36505;52.512;13.460;2023-02-12T10:35:47;103226.59;;;8.70;82.09
50550;BME280;36505;52.512;13.460;2023-02-12T10:38:25;103239.22;;;8.80;81.84
50550;BME280;36505;52.512;13.460;2023-02-12T10:40:52;103241.09;;;8.79;81.64
50550;BME280;36505;52.512;13.460;2023-02-12T10:43:22;103236.50;;;8.80;81.40
50550;BME280;36505;52.512;13.460;2023-02-12T10:45:48;103242.13;;;8.78;81.11
50550;BME280;36505;52.512;13.460;2023-02-12T10:48:21;103236.28;;;8.81;81.38
50550;BME280;36505;52.512;13.460;2023-02-12T10:53:36;103236.28;;;8.81;81.61
50550;BME280;36505;52.512;13.460;2023-02-12T10:58:39;103239.06;;;8.73;81.88
50550;BME280;36505;52.512;13.460;2023-02-12T11:01:16;103245.19;;;8.67;82.27
50550;BME280;36505;52.512;13.460;2023-02-12T11:03:41;103237.00;;;8.59;82.67
50550;BME280;36505;52.512;13.460;2023-02-12T11:06:16;103238.72;;;8.52;83.67
50550;BME280;36505;52.512;13.460;2023-02-12T11:08:42;103239.91;;;8.49;84.22
50550;BME280;36505;52.512;13.460;2023-02-12T11:11:28;103237.34;;;8.48;84.68
50550;BME280;36505;52.512;13.460;2023-02-12T11:14:05;103237.00;;;8.43;85.53
50550;BME280;36505;52.512;13.460;2023-02-12T11:16:36;103232.03;;;8.46;85.82
50550;BME280;36505;52.512;13.460;2023-02-12T11:19:06;103223.69;;;8.48;86.24
50550;BME280;36505;52.512;13.460;2023-02-12T11:21:34;103243.16;;;8.53;86.42
50550;BME280;36505;52.512;13.460;2023-02-12T11:24:20;103233.91;;;8.54;86.46
50550;BME280;36505;52.512;13.460;2023-02-12T11:26:46;103232.56;;;8.50;86.30
50550;BME280;36505;52.512;13.460;2023-02-12T11:29:20;103230.16;;;8.47;85.95
50550;BME280;36505;52.512;13.460;2023-02-12T11:32:03;103221.47;;;8.43;86.03
50550;BME280;36505;52.512;13.460;2023-02-12T11:34:28;103228.81;;;8.43;86.41
50550;BME280;36505;52.512;13.460;2023-02-12T11:36:55;103231.03;;;8.39;87.17
50550;BME280;36505;52.512;13.460;2023-02-12T11:39:27;103231.34;;;8.36;87.47
50550;BME280;36505;52.512;13.460;2023-02-12T11:42:16;103225.22;;;8.34;87.42
50550;BME280;36505;52.512;13.460;2023-02-12T11:44:42;103222.47;;;8.34;87.29
50550;BME280;36505;52.512;13.460;2023-02-12T11:47:38;103228.28;;;8.47;87.00
50550;BME280;36505;52.512;13.460;2023-02-12T11:52:48;103219.94;;;8.65;85.90
50550;BME280;36505;52.512;13.460;2023-02-12T11:55:20;103218.56;;;8.69;85.70
50550;BME280;36505;52.512;13.460;2023-02-12T11:57:51;103215.66;;;8.79;85.27
50550;BME280;36505;52.512;13.460;2023-02-12T12:00:18;103221.97;;;8.79;84.64
50550;BME280;36505;52.512;13.460;2023-02-12T12:05:33;103225.72;;;8.78;84.16
50550;BME280;36505;52.512;13.460;2023-02-12T12:08:03;103218.56;;;8.77;84.09
50550;BME280;36505;52.512;13.460;2023-02-12T12:10:33;103224.72;;;8.71;83.82
50550;BME280;36505;52.512;13.460;2023-02-12T12:13:10;103221.97;;;8.63;83.94
50550;BME280;36505;52.512;13.460;2023-02-12T12:15:44;103215.81;;;8.61;83.63
50550;BME280;36505;52.512;13.460;2023-02-12T12:26:45;103208.28;;;8.95;82.57
50550;BME280;36505;52.512;13.460;2023-02-12T12:29:23;103208.63;;;9.00;82.54
50550;BME280;36505;52.512;13.460;2023-02-12T12:31:59;103198.03;;;8.97;82.40
50550;BME280;36505;52.512;13.460;2023-02-12T12:34:26;103188.13;;;8.96;82.04
50550;BME280;36505;52.512;13.460;2023-02-12T12:47:34;103178.75;;;8.83;81.51
50550;BME280;36505;52.512;13.460;2023-02-12T13:10:42;103188.06;;;9.21;79.38
50550;BME280;36505;52.512;13.460;2023-02-12T13:24:02;103182.34;;;9.38;78.11
50550;BME280;36505;52.512;13.460;2023-02-12T13:26:47;103176.53;;;9.41;77.75
50550;BME280;36505;52.512;13.460;2023-02-12T13:31:59;103174.47;;;9.35;77.00
50550;BME280;36505;52.512;13.460;2023-02-12T13:34:28;103162.91;;;9.25;77.25
50550;BME280;36505;52.512;13.460;2023-02-12T13:36:56;103176.34;;;9.35;76.87
50550;BME280;36505;52.512;13.460;2023-02-12T13:39:29;103172.09;;;9.40;76.93
50550;BME280;36505;52.512;13.460;2023-02-12T13:52:47;103160.28;;;9.40;76.26
50550;BME280;36505;52.512;13.460;2023-02-12T14:01:06;103164.91;;;9.39;76.12
50550;BME280;36505;52.512;13.460;2023-02-12T14:03:33;103167.47;;;9.41;76.30
50550;BME280;36505;52.512;13.460;2023-02-12T14:06:17;103158.28;;;9.34;75.77
50550;BME280;36505;52.512;13.460;2023-02-12T14:08:47;103165.75;;;9.40;75.55
50550;BME280;36505;52.512;13.460;2023-02-12T14:11:19;103153.84;;;9.33;75.48
50550;BME280;36505;52.512;13.460;2023-02-12T14:13:56;103158.59;;;9.39;75.71
50550;BME280;36505;52.512;13.460;2023-02-12T14:22:00;103156.25;;;9.28;75.94
50550;BME280;36505;52.512;13.460;2023-02-12T14:24:55;103163.22;;;9.30;75.55
50550;BME280;36505;52.512;13.460;2023-02-12T14:35:35;103168.53;;;9.32;75.68
50550;BME280;36505;52.512;13.460;2023-02-12T14:40:52;103137.31;;;9.18;75.35
50550;BME280;36505;52.512;13.460;2023-02-12T14:47:10;103157.44;;;9.25;75.64
50550;BME280;36505;52.512;13.460;2023-02-12T14:49:41;103157.63;;;9.24;75.51
50550;BME280;36505;52.512;13.460;2023-02-12T14:59:56;103152.88;;;9.18;76.31
50550;BME280;36505;52.512;13.460;2023-02-12T15:02:28;103149.28;;;9.17;76.25
50550;BME280;36505;52.512;13.460;2023-02-12T15:05:01;103157.31;;;9.19;76.13
50550;BME280;36505;52.512;13.460;2023-02-12T15:07:34;103161.59;;;9.13;76.32
50550;BME280;36505;52.512;13.460;2023-02-12T15:10:14;103162.78;;;9.10;76.64
50550;BME280;36505;52.512;13.460;2023-02-12T15:15:49;103150.84;;;9.03;76.90
50550;BME280;36505;52.512;13.460;2023-02-12T15:23:39;103158.88;;;9.05;77.56
50550;BME280;36505;52.512;13.460;2023-02-12T15:26:09;103153.44;;;8.97;77.75
50550;BME280;36505;52.512;13.460;2023-02-12T15:28:36;103161.09;;;9.01;77.70
50550;BME280;36505;52.512;13.460;2023-02-12T15:31:05;103162.97;;;9.01;77.91
50550;BME280;36505;52.512;13.460;2023-02-12T15:33:36;103157.19;;;8.96;78.12
50550;BME280;36505;52.512;13.460;2023-02-12T15:36:04;103170.16;;;9.02;78.17
50550;BME280;36505;52.512;13.460;2023-02-12T15:38:34;103168.28;;;9.02;78.25
50550;BME280;36505;52.512;13.460;2023-02-12T15:41:01;103172.91;;;9.02;78.21
50550;BME280;36505;52.512;13.460;2023-02-12T15:43:30;103176.66;;;9.01;78.43
50550;BME280;36505;52.512;13.460;2023-02-12T15:46:00;103175.63;;;9.02;78.29
50550;BME280;36505;52.512;13.460;2023-02-12T15:48:31;103172.25;;;9.00;78.17
50550;BME280;36505;52.512;13.460;2023-02-12T15:51:25;103177.72;;;9.00;78.18
50550;BME280;36505;52.512;13.460;2023-02-12T15:53:52;103164.22;;;8.90;78.22
50550;BME280;36505;52.512;13.460;2023-02-12T15:56:21;103177.88;;;8.98;78.33
50550;BME280;36505;52.512;13.460;2023-02-12T15:58:49;103176.00;;;8.99;78.28
50550;BME280;36505;52.512;13.460;2023-02-12T16:01:21;103173.44;;;8.97;78.28
50550;BME280;36505;52.512;13.460;2023-02-12T16:03:52;103182.47;;;8.98;78.36